createdAt,value
2018-09-16T00:01:29.482Z,23.30
2018-09-16T00:03:57.585Z,23.20
2018-09-16T00:06:25.678Z,22.30
2018-09-16T00:08:53.774Z,22.10
2018-09-16T00:11:21.917Z,22.10
2018-09-16T00:13:50.029Z,22.00
2018-09-16T00:16:18.115Z,22.30
2018-09-16T00:18:46.224Z,22.70
2018-09-16T00:21:14.310Z,22.70
2018-09-16T00:23:42.426Z,22.90
2018-09-16T00:26:10.575Z,23.50
2018-09-16T00:28:38.918Z,23.90
2018-09-16T00:31:07.092Z,24.30
2018-09-16T00:33:35.218Z,24.30
2018-09-16T00:36:03.311Z,23.70
2018-09-16T00:38:31.407Z,24.00
2018-09-16T00:40:59.486Z,24.10
2018-09-16T00:43:27.574Z,23.60
2018-09-16T00:45:55.666Z,24.50
2018-09-16T00:48:23.764Z,24.80
2018-09-16T00:50:51.854Z,25.20
2018-09-16T00:53:19.954Z,25.20
2018-09-16T00:55:48.030Z,25.20
2018-09-16T00:58:16.117Z,25.60
2018-09-16T01:00:48.441Z,26.50
2018-09-16T01:03:17.962Z,25.90
2018-09-16T01:05:51.451Z,26.30
2018-09-16T01:08:19.538Z,26.30
2018-09-16T01:10:47.622Z,26.90
2018-09-16T01:13:15.717Z,27.10
2018-09-16T01:15:43.839Z,26.60
2018-09-16T01:18:11.938Z,27.00
2018-09-16T01:20:40.066Z,27.00
2018-09-16T01:23:08.156Z,26.90
2018-09-16T01:25:36.249Z,27.30
2018-09-16T01:28:04.342Z,27.10
2018-09-16T01:30:32.446Z,27.20
2018-09-16T01:33:00.869Z,27.20
2018-09-16T01:35:28.953Z,27.40
2018-09-16T01:38:02.418Z,27.90
2018-09-16T01:40:30.514Z,28.10
2018-09-16T01:42:58.605Z,28.40
2018-09-16T01:45:26.702Z,28.40
2018-09-16T01:47:54.791Z,28.60
2018-09-16T01:50:22.890Z,28.60
2018-09-16T01:52:51.003Z,28.60
2018-09-16T01:55:19.284Z,29.10
2018-09-16T01:57:47.369Z,28.50
2018-09-16T02:00:25.864Z,28.60
2018-09-16T02:02:54.801Z,28.40
2018-09-16T02:05:28.221Z,28.50
2018-09-16T02:07:57.065Z,27.90
2018-09-16T02:10:25.161Z,28.00
2018-09-16T02:12:53.246Z,27.70
2018-09-16T02:15:21.350Z,27.80
2018-09-16T02:17:49.771Z,28.10
2018-09-16T02:20:17.870Z,28.60
2018-09-16T02:22:46.102Z,28.60
2018-09-16T02:25:14.218Z,28.10
2018-09-16T02:27:42.298Z,28.20
2018-09-16T02:30:10.403Z,28.70
2018-09-16T02:32:38.486Z,28.00
2018-09-16T02:35:06.562Z,27.80
2018-09-16T02:37:34.643Z,28.00
2018-09-16T02:40:02.734Z,27.80
2018-09-16T02:42:30.982Z,27.30
2018-09-16T02:44:59.098Z,27.00
2018-09-16T02:47:27.201Z,26.90
2018-09-16T02:49:55.302Z,26.50
2018-09-16T02:52:23.397Z,26.40
2018-09-16T02:54:51.488Z,26.10
2018-09-16T02:57:19.583Z,26.10
2018-09-16T02:59:47.673Z,25.80
2018-09-16T03:02:15.766Z,26.00
2018-09-16T03:04:43.859Z,25.80
2018-09-16T03:07:11.946Z,25.80
2018-09-16T03:09:40.031Z,26.00
2018-09-16T03:12:08.146Z,26.40
2018-09-16T03:14:36.240Z,26.80
2018-09-16T03:17:04.333Z,26.90
2018-09-16T03:19:32.419Z,27.50
2018-09-16T03:22:00.518Z,27.30
2018-09-16T03:24:28.598Z,27.60
2018-09-16T03:26:56.698Z,26.90
2018-09-16T03:29:24.800Z,26.80
2018-09-16T03:31:52.879Z,27.10
2018-09-16T03:34:20.961Z,27.70
2018-09-16T03:36:49.054Z,27.80
2018-09-16T03:39:17.143Z,27.70
2018-09-16T03:41:45.238Z,27.50
2018-09-16T03:44:13.330Z,27.70
2018-09-16T03:46:41.433Z,27.70
2018-09-16T03:49:09.506Z,28.30
2018-09-16T03:51:37.654Z,28.50
2018-09-16T03:54:05.918Z,28.80
2018-09-16T03:56:34.006Z,28.70
2018-09-16T03:59:02.092Z,28.90
2018-09-16T04:01:30.190Z,28.90
2018-09-16T04:03:58.274Z,28.80
2018-09-16T04:06:26.370Z,28.60
2018-09-16T04:08:54.461Z,29.00
2018-09-16T04:11:22.546Z,28.80
2018-09-16T04:13:50.656Z,28.80
2018-09-16T04:16:18.731Z,29.40
2018-09-16T04:18:46.827Z,28.70
2018-09-16T04:21:14.907Z,28.90
2018-09-16T04:23:46.193Z,29.20
2018-09-16T04:26:15.273Z,29.60
2018-09-16T04:28:43.661Z,29.90
2018-09-16T04:31:12.230Z,29.60
2018-09-16T04:33:40.335Z,29.40
2018-09-16T04:36:08.438Z,30.10
2018-09-16T04:38:36.654Z,30.00
2018-09-16T04:41:04.922Z,29.40
2018-09-16T04:43:33.015Z,29.90
2018-09-16T04:46:01.112Z,30.00
2018-09-16T04:48:29.202Z,29.90
2018-09-16T04:50:57.293Z,29.80
2018-09-16T04:53:25.382Z,29.70
2018-09-16T04:55:53.466Z,29.40
2018-09-16T04:58:21.557Z,29.70
2018-09-16T05:00:49.673Z,29.40
2018-09-16T05:03:17.818Z,29.40
2018-09-16T05:05:46.137Z,30.00
2018-09-16T05:08:14.233Z,30.10
2018-09-16T05:10:42.314Z,30.50
2018-09-16T05:13:10.411Z,30.70
2018-09-16T05:15:38.706Z,30.80
2018-09-16T05:18:06.814Z,30.80
2018-09-16T05:20:34.906Z,30.90
2018-09-16T05:23:02.994Z,31.50
2018-09-16T05:25:31.104Z,31.70
2018-09-16T05:27:59.190Z,31.80
2018-09-16T05:30:27.294Z,31.50
2018-09-16T05:32:55.383Z,32.20
2018-09-16T05:35:23.482Z,32.20
2018-09-16T05:37:51.563Z,32.20
2018-09-16T05:40:19.658Z,33.00
2018-09-16T05:42:47.746Z,32.20
2018-09-16T05:45:15.854Z,32.60
2018-09-16T05:47:43.938Z,32.90
2018-09-16T05:50:12.038Z,32.40
2018-09-16T05:52:40.169Z,32.60
2018-09-16T05:55:08.214Z,33.20
2018-09-16T05:57:36.307Z,33.80
2018-09-16T06:00:04.417Z,34.20
2018-09-16T06:02:33.338Z,35.00
2018-09-16T06:05:01.460Z,34.00
2018-09-16T06:07:29.726Z,34.40
2018-09-16T06:09:57.819Z,34.00
2018-09-16T06:12:25.908Z,34.00
2018-09-16T06:14:54.005Z,32.80
2018-09-16T06:17:22.324Z,32.80
2018-09-16T06:19:50.410Z,31.50
2018-09-16T06:22:18.496Z,31.90
2018-09-16T06:24:46.590Z,30.90
2018-09-16T06:27:14.726Z,30.00
2018-09-16T06:29:42.832Z,30.20
2018-09-16T06:32:10.919Z,29.80
2018-09-16T06:34:39.002Z,28.90
2018-09-16T06:37:07.293Z,28.90
2018-09-16T06:39:35.358Z,29.00
2018-09-16T06:42:03.455Z,27.70
2018-09-16T06:44:31.535Z,28.30
2018-09-16T06:46:59.637Z,27.10
2018-09-16T06:49:27.718Z,27.50
2018-09-16T06:51:55.806Z,26.80
2018-09-16T06:54:23.915Z,23.70
2018-09-16T06:56:52.002Z,27.10
2018-09-16T06:59:20.082Z,26.70
2018-09-16T07:01:48.186Z,25.30
2018-09-16T07:04:16.277Z,26.90
2018-09-16T07:06:44.376Z,26.20
2018-09-16T07:09:13.469Z,25.80
2018-09-16T07:11:42.046Z,25.50
2018-09-16T07:14:10.127Z,25.40
2018-09-16T07:16:38.393Z,25.90
2018-09-16T07:19:07.074Z,24.90
2018-09-16T07:21:35.165Z,26.10
2018-09-16T07:24:03.265Z,24.00
2018-09-16T07:26:31.350Z,23.60
2018-09-16T07:28:59.454Z,23.60
2018-09-16T07:31:27.550Z,25.60
2018-09-16T07:33:55.656Z,24.60
2018-09-16T07:36:23.748Z,23.20
2018-09-16T07:38:51.831Z,23.90
2018-09-16T07:41:19.911Z,26.50
2018-09-16T07:43:48.050Z,23.60
2018-09-16T07:46:16.143Z,24.90
2018-09-16T07:48:44.267Z,26.50
2018-09-16T07:51:12.346Z,26.80
2018-09-16T07:53:40.446Z,26.80
2018-09-16T07:56:08.530Z,27.00
2018-09-16T07:58:36.679Z,26.70
2018-09-16T08:01:04.766Z,25.30
2018-09-16T08:03:32.863Z,25.30
2018-09-16T08:06:00.955Z,25.80
2018-09-16T08:08:29.077Z,26.00
2018-09-16T08:10:57.162Z,25.90
2018-09-16T08:13:25.266Z,24.60
2018-09-16T08:15:53.353Z,24.20
2018-09-16T08:18:21.441Z,23.80
2018-09-16T08:20:49.540Z,23.20
2018-09-16T08:23:17.627Z,23.40
2018-09-16T08:25:45.718Z,24.10
2018-09-16T08:28:13.808Z,25.90
2018-09-16T08:30:41.898Z,25.30
2018-09-16T08:33:09.978Z,24.80
2018-09-16T08:35:38.067Z,24.40
2018-09-16T08:38:06.216Z,24.40
2018-09-16T08:40:34.414Z,22.70
2018-09-16T08:43:02.493Z,22.70
2018-09-16T08:45:30.613Z,21.30
2018-09-16T08:47:58.727Z,20.20
2018-09-16T08:50:26.818Z,19.20
2018-09-16T08:52:54.894Z,18.70
2018-09-16T08:55:22.991Z,19.80
2018-09-16T08:57:51.077Z,19.10
2018-09-16T09:00:19.166Z,17.80
2018-09-16T09:02:47.250Z,15.20
2018-09-16T09:05:15.345Z,17.60
2018-09-16T09:07:43.428Z,17.70
2018-09-16T09:10:11.521Z,17.90
2018-09-16T09:12:39.621Z,16.20
2018-09-16T09:15:07.711Z,16.90
2018-09-16T09:17:35.797Z,16.70
2018-09-16T09:20:03.894Z,14.20
2018-09-16T09:22:31.986Z,15.00
2018-09-16T09:25:00.074Z,14.90
2018-09-16T09:27:28.159Z,14.40
2018-09-16T09:29:56.254Z,13.20
2018-09-16T09:32:24.333Z,15.40
2018-09-16T09:34:52.441Z,15.30
2018-09-16T09:37:20.526Z,14.70
2018-09-16T09:39:48.626Z,12.20
2018-09-16T09:42:16.710Z,12.50
2018-09-16T09:44:44.822Z,14.00
2018-09-16T09:47:12.910Z,15.00
2018-09-16T09:49:41.006Z,13.40
2018-09-16T09:52:09.117Z,12.70
2018-09-16T09:54:37.222Z,12.60
2018-09-16T09:57:05.403Z,11.40
2018-09-16T09:59:33.616Z,14.10
2018-09-16T10:02:01.704Z,14.00
2018-09-16T10:04:29.790Z,11.90
2018-09-16T10:07:00.906Z,13.60
2018-09-16T10:09:29.115Z,9.50
2018-09-16T10:11:57.298Z,8.50
2018-09-16T10:14:26.266Z,8.60
2018-09-16T10:16:57.468Z,9.30
2018-09-16T10:19:25.552Z,8.80
2018-09-16T10:21:53.716Z,11.10
2018-09-16T10:24:21.862Z,12.30
2018-09-16T10:26:49.896Z,9.30
2018-09-16T10:29:18.001Z,8.70
2018-09-16T10:31:46.104Z,10.30
2018-09-16T10:34:14.230Z,9.90
2018-09-16T10:36:42.406Z,6.30
2018-09-16T10:39:11.575Z,5.70
2018-09-16T10:41:39.695Z,6.50
2018-09-16T10:44:07.935Z,8.10
2018-09-16T10:46:36.018Z,7.90
2018-09-16T10:49:04.098Z,5.50
2018-09-16T10:51:32.187Z,6.70
2018-09-16T10:54:01.338Z,4.70
2018-09-16T10:56:29.502Z,6.40
2018-09-16T10:58:57.561Z,6.90
2018-09-16T11:01:26.522Z,7.00
2018-09-16T11:03:54.618Z,5.50
2018-09-16T11:06:22.713Z,5.90
2018-09-16T11:08:50.966Z,4.60
2018-09-16T11:11:19.909Z,6.10
2018-09-16T11:13:48.045Z,6.20
2018-09-16T11:16:16.126Z,3.20
2018-09-16T11:18:46.990Z,5.30
2018-09-16T11:21:15.178Z,6.80
2018-09-16T11:23:43.304Z,7.40
2018-09-16T11:26:12.461Z,2.10
2018-09-16T11:28:40.563Z,2.40
2018-09-16T11:31:08.642Z,5.20
2018-09-16T11:33:41.950Z,3.50
2018-09-16T11:36:10.042Z,2.70
2018-09-16T11:38:38.193Z,4.20
2018-09-16T11:41:06.426Z,3.90
2018-09-16T11:43:34.574Z,4.10
2018-09-16T11:46:02.644Z,5.60
2018-09-16T11:48:30.786Z,6.40
2018-09-16T11:50:58.880Z,5.70
2018-09-16T11:53:26.971Z,4.60
2018-09-16T11:55:55.058Z,3.30
2018-09-16T11:58:23.314Z,3.70
2018-09-16T12:00:51.502Z,3.10
2018-09-16T12:03:19.592Z,2.30
2018-09-16T12:05:47.670Z,4.70
2018-09-16T12:08:15.750Z,4.50
2018-09-16T12:10:43.821Z,1.40
2018-09-16T12:13:11.930Z,4.00
2018-09-16T12:15:40.006Z,3.40
2018-09-16T12:18:08.127Z,1.00
2018-09-16T12:20:36.197Z,1.00
2018-09-16T12:23:04.294Z,1.00
2018-09-16T12:25:32.506Z,1.00
2018-09-16T12:28:00.630Z,1.00
2018-09-16T12:30:28.732Z,1.00
2018-09-16T12:32:56.813Z,1.00
2018-09-16T12:35:25.082Z,1.00
2018-09-16T12:37:53.158Z,1.00
2018-09-16T12:40:21.250Z,1.00
2018-09-16T12:42:49.351Z,1.00
2018-09-16T12:45:17.592Z,1.00
2018-09-16T12:47:45.614Z,1.00
2018-09-16T12:50:13.702Z,1.00
2018-09-16T12:52:41.898Z,1.00
2018-09-16T12:55:09.986Z,1.00
2018-09-16T12:57:38.057Z,1.00
2018-09-16T13:00:06.339Z,1.00
2018-09-16T13:02:34.417Z,1.00
2018-09-16T13:05:02.510Z,1.00
2018-09-16T13:07:30.617Z,1.00
2018-09-16T13:09:58.723Z,1.00
2018-09-16T13:12:26.801Z,1.00
2018-09-16T13:14:54.891Z,1.00
2018-09-16T13:17:22.992Z,1.00
2018-09-16T13:19:51.090Z,1.00
2018-09-16T13:22:19.184Z,1.00
2018-09-16T13:24:47.280Z,1.00
2018-09-16T13:27:15.358Z,1.00
2018-09-16T13:29:43.458Z,1.00
2018-09-16T13:32:11.538Z,1.00
2018-09-16T13:34:39.674Z,1.00
2018-09-16T13:37:07.749Z,1.00
2018-09-16T13:39:35.838Z,1.00
2018-09-16T13:42:03.913Z,1.00
2018-09-16T13:44:32.038Z,1.00
2018-09-16T13:47:00.128Z,1.00
2018-09-16T13:49:28.346Z,1.00
2018-09-16T13:51:56.438Z,1.00
2018-09-16T13:54:24.573Z,1.00
2018-09-16T13:56:52.705Z,1.00
2018-09-16T13:59:20.782Z,1.00
2018-09-16T14:01:48.870Z,1.00
2018-09-16T14:04:16.954Z,1.00
2018-09-16T14:06:45.042Z,1.00
2018-09-16T14:09:13.933Z,1.00
2018-09-16T14:11:42.417Z,1.00
2018-09-16T14:14:10.513Z,1.00
2018-09-16T14:16:38.974Z,1.00
2018-09-16T14:19:07.138Z,1.00
2018-09-16T14:21:35.261Z,1.00
2018-09-16T14:24:03.337Z,1.00
2018-09-16T14:26:31.438Z,1.00
2018-09-16T14:28:59.554Z,1.00
2018-09-16T14:31:27.642Z,1.00
2018-09-16T14:33:55.771Z,1.00
2018-09-16T14:36:23.877Z,1.00
2018-09-16T14:38:51.969Z,1.00
2018-09-16T14:41:20.055Z,1.00
2018-09-16T14:43:48.138Z,1.00
2018-09-16T14:46:16.229Z,1.00
2018-09-16T14:48:44.313Z,1.00
2018-09-16T14:51:12.426Z,1.00
2018-09-16T14:53:40.510Z,1.00
2018-09-16T14:56:08.582Z,1.00
2018-09-16T14:58:36.691Z,1.00
2018-09-16T15:01:04.990Z,1.00
2018-09-16T15:03:33.066Z,1.00
2018-09-16T15:06:01.142Z,1.00
2018-09-16T15:08:29.230Z,1.00
2018-09-16T15:10:57.366Z,1.00
2018-09-16T15:13:25.457Z,1.00
2018-09-16T15:15:53.543Z,1.00
2018-09-16T15:18:21.629Z,1.00
2018-09-16T15:20:49.765Z,1.00
2018-09-16T15:23:17.801Z,1.00
2018-09-16T15:25:45.881Z,1.00
2018-09-16T15:28:13.966Z,1.00
2018-09-16T15:30:42.053Z,1.00
2018-09-16T15:33:10.143Z,1.00
2018-09-16T15:35:38.262Z,1.00
2018-09-16T15:38:06.526Z,1.00
2018-09-16T15:40:34.614Z,1.00
2018-09-16T15:43:02.771Z,1.00
2018-09-16T15:45:30.858Z,1.00
2018-09-16T15:47:58.953Z,1.00
2018-09-16T15:50:27.076Z,1.00
2018-09-16T15:52:55.158Z,1.00
2018-09-16T15:55:23.241Z,1.00
2018-09-16T15:57:51.326Z,1.00
2018-09-16T16:00:19.398Z,1.00
2018-09-16T16:02:47.486Z,1.00
2018-09-16T16:05:15.569Z,1.00
2018-09-16T16:07:43.655Z,1.00
2018-09-16T16:10:11.770Z,1.00
2018-09-16T16:12:39.858Z,1.00
2018-09-16T16:15:08.015Z,1.00
2018-09-16T16:17:36.101Z,1.00
2018-09-16T16:20:04.182Z,1.00
2018-09-16T16:22:32.328Z,1.00
2018-09-16T16:25:00.382Z,1.00
2018-09-16T16:27:28.470Z,1.00
2018-09-16T16:29:56.626Z,1.00
2018-09-16T16:32:24.768Z,1.00
2018-09-16T16:34:52.858Z,1.00
2018-09-16T16:37:21.546Z,1.00
2018-09-16T16:39:49.658Z,1.00
2018-09-16T16:42:17.750Z,1.00
2018-09-16T16:44:46.492Z,1.00
2018-09-16T16:47:14.573Z,1.00
2018-09-16T16:49:42.705Z,1.00
2018-09-16T16:52:10.798Z,1.00
2018-09-16T16:54:38.882Z,1.00
2018-09-16T16:57:06.968Z,1.00
2018-09-16T16:59:35.054Z,1.00
2018-09-16T17:02:03.181Z,1.00
2018-09-16T17:04:31.249Z,1.00
2018-09-16T17:06:59.342Z,1.00
2018-09-16T17:09:27.497Z,1.00
2018-09-16T17:11:55.502Z,1.00
2018-09-16T17:14:23.589Z,1.00
2018-09-16T17:16:51.670Z,1.00
2018-09-16T17:19:19.762Z,1.00
2018-09-16T17:21:47.838Z,1.00
2018-09-16T17:24:15.928Z,1.00
2018-09-16T17:26:44.010Z,1.00
2018-09-16T17:29:12.118Z,1.00
2018-09-16T17:31:40.198Z,1.00
2018-09-16T17:34:08.276Z,1.00
2018-09-16T17:36:36.377Z,1.00
2018-09-16T17:39:07.463Z,1.00
2018-09-16T17:41:35.574Z,1.00
2018-09-16T17:44:03.765Z,1.00
2018-09-16T17:46:31.786Z,1.00
2018-09-16T17:48:59.872Z,1.70
2018-09-16T17:51:27.962Z,2.80
2018-09-16T17:53:56.036Z,3.10
2018-09-16T17:56:24.199Z,3.00
2018-09-16T17:58:52.482Z,3.30
2018-09-16T18:01:21.482Z,4.50
2018-09-16T18:03:49.557Z,5.10
2018-09-16T18:06:17.648Z,4.80
2018-09-16T18:08:46.618Z,4.50
2018-09-16T18:11:15.198Z,2.30
2018-09-16T18:13:43.650Z,2.40
2018-09-16T18:16:12.160Z,2.50
2018-09-16T18:18:40.733Z,2.90
2018-09-16T18:21:09.022Z,3.70
2018-09-16T18:23:37.100Z,5.80
2018-09-16T18:26:05.182Z,6.30
2018-09-16T18:28:33.302Z,5.60
2018-09-16T18:31:01.394Z,6.70
2018-09-16T18:33:29.471Z,8.10
2018-09-16T18:35:57.565Z,7.80
2018-09-16T18:38:25.652Z,7.70
2018-09-16T18:40:53.730Z,8.50
2018-09-16T18:43:21.827Z,7.90
2018-09-16T18:45:49.917Z,7.20
2018-09-16T18:48:17.997Z,7.10
2018-09-16T18:50:46.082Z,8.00
2018-09-16T18:53:14.162Z,8.10
2018-09-16T18:55:42.246Z,7.30
2018-09-16T18:58:10.322Z,7.30
2018-09-16T19:00:38.397Z,7.70
2018-09-16T19:03:06.500Z,7.70
2018-09-16T19:05:34.596Z,8.10
2018-09-16T19:08:02.682Z,8.20
2018-09-16T19:10:30.770Z,8.70
2018-09-16T19:12:58.861Z,9.40
2018-09-16T19:15:27.186Z,9.80
2018-09-16T19:17:55.278Z,9.80
2018-09-16T19:20:23.362Z,10.10
2018-09-16T19:22:51.461Z,10.90
2018-09-16T19:25:19.684Z,11.30
2018-09-16T19:27:47.770Z,11.20
2018-09-16T19:30:15.854Z,11.40
2018-09-16T19:32:43.941Z,11.60
2018-09-16T19:35:12.039Z,12.00
2018-09-16T19:37:40.138Z,12.00
2018-09-16T19:40:08.268Z,12.50
2018-09-16T19:42:36.309Z,12.80
2018-09-16T19:45:04.702Z,12.80
2018-09-16T19:47:32.795Z,12.70
2018-09-16T19:50:00.883Z,13.00
2018-09-16T19:52:28.978Z,13.60
2018-09-16T19:54:57.066Z,14.10
2018-09-16T19:57:25.155Z,13.70
2018-09-16T19:59:53.244Z,15.00
2018-09-16T20:02:21.328Z,15.00
2018-09-16T20:04:49.442Z,15.30
2018-09-16T20:07:17.534Z,15.30
2018-09-16T20:09:45.617Z,15.80
2018-09-16T20:12:13.706Z,15.70
2018-09-16T20:14:41.983Z,15.10
2018-09-16T20:17:10.274Z,15.10
2018-09-16T20:19:38.362Z,15.10
2018-09-16T20:22:07.434Z,15.70
2018-09-16T20:24:35.517Z,15.00
2018-09-16T20:27:03.805Z,15.90
2018-09-16T20:29:31.898Z,14.90
2018-09-16T20:31:59.972Z,14.50
2018-09-16T20:34:28.050Z,15.10
2018-09-16T20:36:56.213Z,15.00
2018-09-16T20:39:24.237Z,14.90
2018-09-16T20:41:52.330Z,14.70
2018-09-16T20:44:20.426Z,14.90
2018-09-16T20:46:48.510Z,15.90
2018-09-16T20:49:16.609Z,14.80
2018-09-16T20:51:44.694Z,16.50
2018-09-16T20:54:12.798Z,16.20
2018-09-16T20:56:40.882Z,15.40
2018-09-16T20:59:08.974Z,15.30
2018-09-16T21:01:37.050Z,15.30
2018-09-16T21:04:05.138Z,14.80
2018-09-16T21:06:33.218Z,14.40
2018-09-16T21:09:01.304Z,14.80
2018-09-16T21:11:29.387Z,16.70
2018-09-16T21:13:57.478Z,16.40
2018-09-16T21:16:25.558Z,17.40
2018-09-16T21:18:53.646Z,17.10
2018-09-16T21:21:21.727Z,17.20
2018-09-16T21:23:50.010Z,17.00
2018-09-16T21:26:18.173Z,17.30
2018-09-16T21:28:46.418Z,17.00
2018-09-16T21:31:14.494Z,17.60
2018-09-16T21:33:42.583Z,18.20
2018-09-16T21:36:10.669Z,18.60
2018-09-16T21:38:38.750Z,18.10
2018-09-16T21:41:06.837Z,18.10
2018-09-16T21:43:34.921Z,18.10
2018-09-16T21:46:03.009Z,18.10
2018-09-16T21:48:31.102Z,17.50
2018-09-16T21:50:59.190Z,17.40
2018-09-16T21:53:27.278Z,17.70
2018-09-16T21:55:55.367Z,18.00
2018-09-16T21:58:23.442Z,19.00
2018-09-16T22:00:52.940Z,19.20
2018-09-16T22:03:22.230Z,19.50
2018-09-16T22:05:50.383Z,20.10
2018-09-16T22:08:18.448Z,20.10
2018-09-16T22:10:46.661Z,20.40
2018-09-16T22:13:15.040Z,20.20
2018-09-16T22:15:43.309Z,21.10
2018-09-16T22:18:11.386Z,20.10
2018-09-16T22:20:39.958Z,20.40
2018-09-16T22:23:08.367Z,19.60
2018-09-16T22:25:36.463Z,19.40
2018-09-16T22:28:04.890Z,20.70
2018-09-16T22:30:33.029Z,20.80
2018-09-16T22:33:01.230Z,20.20
2018-09-16T22:35:29.318Z,20.50
2018-09-16T22:37:57.402Z,20.20
2018-09-16T22:40:25.501Z,20.10
2018-09-16T22:42:54.430Z,21.20
2018-09-16T22:45:22.521Z,20.60
2018-09-16T22:47:50.606Z,21.00
2018-09-16T22:50:18.697Z,21.90
2018-09-16T22:52:46.789Z,21.70
2018-09-16T22:55:14.939Z,21.50
2018-09-16T22:57:43.162Z,21.70
2018-09-16T23:00:12.726Z,21.80
2018-09-16T23:02:41.005Z,22.00
2018-09-16T23:05:09.090Z,22.70
2018-09-16T23:07:37.177Z,22.90
2018-09-16T23:10:05.467Z,22.70
2018-09-16T23:12:33.548Z,22.90
2018-09-16T23:15:01.665Z,23.00
2018-09-16T23:17:29.745Z,22.70
2018-09-16T23:19:57.953Z,22.20
2018-09-16T23:22:26.037Z,22.20
2018-09-16T23:24:54.130Z,21.80
2018-09-16T23:27:22.220Z,22.00
2018-09-16T23:29:50.342Z,22.20
2018-09-16T23:32:18.426Z,22.00
2018-09-16T23:34:46.559Z,22.30
2018-09-16T23:37:14.649Z,22.00
2018-09-16T23:39:42.728Z,22.00
2018-09-16T23:42:10.846Z,22.10
2018-09-16T23:44:38.950Z,22.20
2018-09-16T23:47:07.390Z,22.60
2018-09-16T23:49:35.479Z,22.90
2018-09-16T23:52:03.593Z,22.70
2018-09-16T23:54:31.690Z,22.90
2018-09-16T23:56:59.850Z,23.00
2018-09-16T23:59:27.930Z,22.70
